Time;durP1;ratioP1;P1;durP2;ratioP2;P2;SDS_P1;SDS_P2;PMS_P1;PMS_P2;Temp;Humidity;BMP_temperature;BMP_pressure;BME280_temperature;BME280_humidity;BME280_pressure;Samples;Min_cycle;Max_cycle;Signal;HPM_P1;HPM_P2
2021/06/30 00:00:08;;;;;;;;;;;13.90;1.40;;;15.15;100.00;95058.78;656278;216;24822;-73
2021/06/30 00:02:49;;;;;;;;;;;14.00;1.40;;;15.14;100.00;95058.20;653627;216;24816;-73
2021/06/30 00:05:31;;;;;;;;;;;13.90;1.40;;;15.11;100.00;95057.48;651609;212;25532;-72
2021/06/30 00:08:12;;;;;;;;;;;13.90;1.40;;;15.08;100.00;95056.43;652098;212;24816;-73
2021/06/30 00:10:53;;;;;;;;;;;13.90;1.40;;;15.06;100.00;95053.72;653464;212;24810;-72
2021/06/30 00:13:35;;;;;;;;;;;13.90;1.40;;;15.14;100.00;95047.34;655058;212;24817;-73
2021/06/30 00:16:16;;;;;;;;;;;13.90;1.40;;;15.21;100.00;95051.66;652620;212;24922;-73
2021/06/30 00:19:00;;;;;;;;;;;13.90;1.40;;;15.24;100.00;95038.90;653782;212;24806;-73
2021/06/30 00:21:42;;;;;;;;;;;13.90;1.40;;;15.29;100.00;95036.17;653678;212;24909;-73
2021/06/30 00:24:26;;;;;;;;;;;14.00;1.40;;;15.22;100.00;95047.45;654362;216;24822;-72
2021/06/30 00:27:07;;;;;;;;;;;14.00;1.40;;;15.22;100.00;95051.22;652902;216;24892;-72
2021/06/30 00:29:49;;;;;;;;;;;14.00;1.40;;;15.23;100.00;95043.56;652394;216;24734;-74
2021/06/30 00:32:33;;;;;;;;;;;14.10;1.40;;;15.14;100.00;95045.42;653783;212;25443;-73
2021/06/30 00:35:51;;;;;;;;;;;14.00;1.40;;;15.12;100.00;95041.97;653284;212;24849;-74
2021/06/30 00:38:33;;;;;;;;;;;14.00;1.40;;;15.13;100.00;95044.18;652604;212;24830;-73
2021/06/30 00:41:14;;;;;;;;;;;14.00;1.40;;;15.15;100.00;95046.20;650899;213;24833;-73
2021/06/30 00:43:55;;;;;;;;;;;14.00;1.40;;;15.17;100.00;95048.47;655060;216;25398;-74
2021/06/30 00:46:39;;;;;;;;;;;13.90;1.40;;;15.17;100.00;95039.70;652146;212;24729;-73
2021/06/30 00:49:21;;;;;;;;;;;13.90;1.40;;;15.11;100.00;95036.72;652880;216;24816;-72
2021/06/30 00:52:02;;;;;;;;;;;13.90;1.40;;;15.12;100.00;95033.56;652823;216;24828;-73
2021/06/30 00:54:47;;;;;;;;;;;13.90;1.40;;;15.08;100.00;95035.13;654602;212;24819;-73
2021/06/30 00:57:28;;;;;;;;;;;13.90;1.40;;;15.09;100.00;95037.59;652884;212;24720;-73
2021/06/30 01:00:10;;;;;;;;;;;13.90;1.40;;;15.04;100.00;95047.73;621949;229;24815;-72
2021/06/30 01:02:51;;;;;;;;;;;13.80;1.40;;;14.99;100.00;95057.60;652476;212;24808;-74
2021/06/30 01:05:32;;;;;;;;;;;13.80;1.40;;;14.94;100.00;95064.56;656589;216;24817;-73
2021/06/30 01:08:14;;;;;;;;;;;13.80;1.40;;;14.85;100.00;95068.84;654067;212;24900;-73
2021/06/30 01:10:55;;;;;;;;;;;13.80;1.40;;;14.87;100.00;95072.29;654920;216;24889;-73
2021/06/30 01:13:39;;;;;;;;;;;13.70;1.40;;;14.80;100.00;95074.53;653428;216;24733;-73
2021/06/30 01:16:20;;;;;;;;;;;13.70;1.40;;;14.75;100.00;95075.58;656257;216;24791;-72
2021/06/30 01:19:02;;;;;;;;;;;13.70;1.40;;;14.73;100.00;95077.69;651048;216;25448;-74
2021/06/30 01:21:43;;;;;;;;;;;13.70;1.40;;;14.70;100.00;95065.17;652121;212;24855;-73
2021/06/30 01:24:24;;;;;;;;;;;13.70;1.40;;;14.63;100.00;95069.79;651668;212;24834;-72
2021/06/30 01:27:06;;;;;;;;;;;13.70;1.40;;;14.63;100.00;95076.25;653493;213;25282;-73
2021/06/30 01:29:50;;;;;;;;;;;13.60;1.40;;;14.61;100.00;95080.09;651833;216;24921;-72
2021/06/30 01:32:31;;;;;;;;;;;13.60;1.40;;;14.65;100.00;95079.99;653618;212;25107;-72
2021/06/30 01:35:51;;;;;;;3.60;3.30;;;13.60;1.40;;;14.65;100.00;95082.38;616255;224;31883;-71
2021/06/30 01:38:33;;;;;;;3.60;3.30;;;13.50;1.40;;;14.58;100.00;95084.02;648617;216;31586;-71
2021/06/30 01:41:14;;;;;;;5.50;4.00;;;13.50;1.40;;;14.56;100.00;95090.91;620817;222;42752;-71
2021/06/30 01:43:56;;;;;;;3.72;3.42;;;13.50;1.40;;;14.57;100.00;95096.05;645566;216;33093;-72
2021/06/30 01:46:38;;;;;;;3.50;3.20;;;13.50;1.40;;;14.52;100.00;95109.62;647696;212;31588;-71
2021/06/30 01:49:19;;;;;;;3.50;3.20;;;13.60;1.40;;;14.51;100.00;95104.20;618062;226;32131;-71
2021/06/30 01:52:01;;;;;;;3.60;3.30;;;13.60;1.40;;;14.50;100.00;95106.53;644541;216;31597;-71
2021/06/30 01:54:43;;;;;;;3.23;2.90;;;13.60;1.40;;;14.48;100.00;95096.24;646922;212;31608;-72
2021/06/30 01:57:24;;;;;;;3.10;2.90;;;13.60;1.40;;;14.45;100.00;95093.88;649822;216;31761;-71
2021/06/30 02:00:08;;;;;;;3.60;3.23;;;13.60;1.40;;;14.48;100.00;95096.50;647376;212;31609;-70
2021/06/30 02:02:50;;;;;;;4.33;3.30;;;13.60;1.40;;;14.45;100.00;95100.84;646309;216;31597;-71
2021/06/30 02:05:31;;;;;;;3.40;3.17;;;13.60;1.40;;;14.41;100.00;95108.41;622535;222;31918;-70
2021/06/30 02:08:13;;;;;;;3.70;3.30;;;13.50;1.40;;;14.38;100.00;95134.00;649469;216;31832;-71
2021/06/30 02:10:55;;;;;;;3.50;3.20;;;13.50;1.40;;;14.37;100.00;95145.64;645855;216;31669;-71
2021/06/30 02:13:38;;;;;;;3.53;2.60;;;13.50;1.40;;;14.32;100.00;95143.48;621377;222;32002;-71
2021/06/30 02:16:20;;;;;;;2.60;2.40;;;13.50;1.40;;;14.28;100.00;95137.73;644853;212;31739;-72
2021/06/30 02:19:04;;;;;;;3.00;2.20;;;13.50;1.40;;;14.28;100.00;95141.12;647536;216;31689;-72
2021/06/30 02:21:43;;;;;;;2.67;2.47;;;13.40;1.40;;;14.26;100.00;95142.12;648914;212;31691;-72
2021/06/30 02:24:25;;;;;;;2.10;1.90;;;13.40;1.40;;;14.18;100.00;95139.53;649047;212;31597;-71
2021/06/30 02:27:07;;;;;;;2.07;1.67;;;13.40;1.40;;;14.16;100.00;95146.89;648436;216;31707;-72
2021/06/30 02:32:23;;;;;;;1.93;1.73;;;13.30;1.40;;;-143.44;100.00;122422.95;647596;216;31567;-71
2021/06/30 02:35:51;;;;;;;2.00;1.60;;;13.30;1.40;;;14.05;100.00;95161.25;648313;212;42757;-72
2021/06/30 02:38:33;;;;;;;2.00;1.50;;;13.30;1.40;;;14.04;100.00;95157.96;620403;226;32454;-71
2021/06/30 02:41:14;;;;;;;2.12;1.50;;;13.20;1.40;;;13.96;100.00;95167.25;645297;212;32272;-72
2021/06/30 02:43:56;;;;;;;1.70;1.15;;;13.10;1.40;;;13.84;100.00;95182.39;650238;216;31693;-73
2021/06/30 02:46:37;;;;;;;1.10;1.00;;;13.10;1.40;;;;;;647755;212;31536;-72
2021/06/30 02:49:18;;;;;;;0.80;0.70;;;13.00;1.40;;;;;;646325;212;31607;-71
2021/06/30 02:51:59;;;;;;;0.90;0.90;;;12.80;1.40;;;;;;618460;226;31936;-72
2021/06/30 02:57:14;;;;;;;0.87;0.70;;;12.70;1.40;;;;;;645197;212;31511;-71
2021/06/30 02:59:59;;;;;;;0.70;0.70;;;12.60;1.40;;;;;;644534;216;31489;-71
2021/06/30 03:02:40;;;;;;;1.70;0.80;;;12.60;1.40;;;;;;650017;216;31804;-71
2021/06/30 03:05:21;;;;;;;0.87;0.60;;;12.50;1.40;;;;;;644031;212;31695;-71
2021/06/30 03:08:02;;;;;;;0.80;0.60;;;12.40;1.40;;;;;;648308;216;31499;-71
2021/06/30 03:10:43;;;;;;;0.70;0.60;;;12.40;1.40;;;;;;646419;212;31509;-71
2021/06/30 03:13:24;;;;;;;1.10;0.40;;;12.40;1.40;;;;;;646184;212;31612;-71
2021/06/30 03:16:05;;;;;;;0.80;0.50;;;12.30;1.40;;;;;;647537;216;31753;-71
2021/06/30 03:18:46;;;;;;;1.10;0.40;;;12.20;1.40;;;;;;634826;217;31716;-71
2021/06/30 03:21:27;;;;;;;0.50;0.40;;;12.20;1.40;;;;;;645495;212;31507;-71
2021/06/30 03:24:11;;;;;;;1.00;0.50;;;12.00;1.40;;;;;;649573;216;31529;-70
2021/06/30 03:26:52;;;;;;;0.50;0.40;;;12.00;1.40;;;;;;622199;222;31837;-70
2021/06/30 03:29:33;;;;;;;1.00;0.60;;;11.90;1.40;;;;;;648077;216;31494;-70
2021/06/30 03:32:15;;;;;;;1.30;0.30;;;11.90;1.40;;;;;;647802;216;31531;-70
2021/06/30 03:35:52;;;;;;;1.05;0.40;;;11.80;1.40;;;-143.44;100.00;122422.95;646856;212;31499;-71
2021/06/30 03:38:33;;;;;;;0.60;0.47;;;11.80;1.40;;;;;;647855;212;31498;-72
2021/06/30 03:41:14;;;;;;;1.00;0.30;;;11.70;1.40;;;;;;646670;212;31690;-70
2021/06/30 03:43:55;;;;;;;0.70;0.40;;;11.70;1.40;;;;;;648342;212;31465;-71
2021/06/30 03:46:36;;;;;;;1.00;0.40;;;11.60;1.40;;;;;;648192;212;31495;-71
2021/06/30 03:51:51;;;;;;;1.75;0.40;;;11.60;1.40;;;;;;604795;222;32038;-70
2021/06/30 03:54:32;;;;;;;1.30;0.50;;;11.60;1.40;;;;;;648434;213;31514;-71
2021/06/30 03:57:13;;;;;;;0.80;0.40;;;11.60;1.40;;;;;;648684;212;31493;-70
2021/06/30 04:02:29;;;;;;;1.23;0.50;;;11.60;1.40;;;;;;645905;212;31474;-70
2021/06/30 04:05:10;;;;;;;1.50;0.60;;;11.60;1.40;;;;;;649163;212;31537;-70
2021/06/30 04:07:51;;;;;;;1.40;0.50;;;11.60;1.40;;;;;;647672;216;31575;-71
2021/06/30 04:10:32;;;;;;;0.60;0.50;;;11.60;1.40;;;;;;647012;216;32339;-70
2021/06/30 04:13:16;;;;;;;0.60;0.40;;;11.60;1.40;;;;;;646225;212;31506;-71
2021/06/30 04:15:57;;;;;;;0.80;0.40;;;11.60;1.40;;;;;;646117;212;31523;-70
2021/06/30 04:18:38;;;;;;;2.30;0.50;;;11.60;1.40;;;;;;646912;216;31478;-70
2021/06/30 04:21:23;;;;;;;0.60;0.50;;;11.60;1.40;;;;;;645546;212;31686;-70
2021/06/30 04:24:06;;;;;;;0.80;0.60;;;11.60;1.40;;;;;;616554;222;32014;-72
2021/06/30 04:29:19;;;;;;;1.83;0.40;;;11.60;1.40;;;;;;646941;216;31481;-72
2021/06/30 04:32:00;;;;;;;0.70;0.50;;;11.70;1.40;;;;;;646738;212;31508;-72
2021/06/30 04:35:51;;;;;;;0.62;0.50;;;11.70;1.40;;;12.85;100.00;95195.23;647566;212;31652;-72
2021/06/30 04:38:33;;;;;;;0.93;0.30;;;11.80;1.40;;;12.84;100.00;95192.67;643793;216;31544;-70
2021/06/30 04:41:15;;;;;;;0.70;0.40;;;11.80;1.40;;;12.78;100.00;95193.81;645915;216;31472;-72
2021/06/30 04:43:57;;;;;;;1.37;0.50;;;11.80;1.40;;;12.82;100.00;95197.27;646057;213;42481;-72
2021/06/30 04:46:38;;;;;;;0.60;0.40;;;11.80;1.40;;;12.71;100.00;95197.63;647873;212;42135;-72
2021/06/30 04:51:57;;;;;;;0.70;0.40;;;11.80;1.40;;;12.67;100.00;95187.11;645504;212;42703;-72
2021/06/30 04:54:39;;;;;;;0.50;0.22;;;11.80;1.40;;;12.61;100.00;95189.41;645305;212;42654;-71
2021/06/30 04:57:21;;;;;;;1.00;0.40;;;11.80;1.40;;;12.62;100.00;95191.74;645211;212;32131;-72
2021/06/30 05:00:05;;;;;;;2.00;0.40;;;11.90;1.40;;;12.66;100.00;95184.97;647133;212;31622;-73
2021/06/30 05:02:50;;;;;;;0.50;0.40;;;11.90;1.40;;;12.74;100.00;95180.79;649692;212;31546;-72
2021/06/30 05:05:34;;;;;;;0.88;0.30;;;11.90;1.40;;;12.76;100.00;95180.45;647446;212;31504;-72
2021/06/30 05:08:16;;;;;;;0.80;0.30;;;12.00;1.40;;;12.80;100.00;95177.38;645800;212;31505;-71
2021/06/30 05:11:02;;;;;;;0.40;0.30;;;12.00;1.40;;;12.89;100.00;95176.11;645111;212;31504;-71
2021/06/30 05:13:49;;;;;;;0.70;0.30;;;12.10;1.40;;;12.95;100.00;95170.88;645584;216;31713;-72
2021/06/30 05:16:38;;;;;;;1.10;0.30;;;12.20;1.40;;;12.93;100.00;95178.36;647557;212;31512;-72
2021/06/30 05:19:25;;;;;;;0.60;0.23;;;12.20;1.40;;;12.99;100.00;95183.20;646453;216;42134;-73
2021/06/30 05:22:08;;;;;;;1.00;0.40;;;12.30;1.40;;;13.00;100.00;95183.70;646624;216;31522;-72
2021/06/30 05:24:56;;;;;;;1.70;0.52;;;12.30;1.40;;;13.01;100.00;95187.06;646142;216;31463;-72
2021/06/30 05:27:44;;;;;;;1.27;0.50;;;12.30;1.40;;;13.10;100.00;95183.78;646754;212;31642;-71
2021/06/30 05:30:26;;;;;;;0.70;0.32;;;12.30;1.40;;;13.17;100.00;95176.81;647008;216;31524;-73
2021/06/30 05:35:57;;;;;;;1.10;0.50;;;12.40;1.40;;;13.31;100.00;95176.29;646226;216;31483;-72
2021/06/30 05:39:59;;;;;;;0.90;0.40;;;12.60;1.40;;;13.61;100.00;95175.88;642072;212;31640;-74
2021/06/30 05:42:43;;;;;;;0.70;0.30;;;12.80;1.40;;;13.70;100.00;95173.85;644561;212;31492;-72
2021/06/30 05:45:26;;;;;;;0.80;0.50;;;12.90;1.40;;;13.74;100.00;95179.27;620944;222;31836;-73
2021/06/30 05:48:13;;;;;;;0.90;0.30;;;12.80;1.40;;;;;;619065;226;31827;-72
2021/06/30 05:50:54;;;;;;;0.60;0.30;;;12.70;1.40;;;;;;644980;216;31827;-73
2021/06/30 05:53:35;;;;;;;0.80;0.40;;;12.60;1.40;;;;;;645646;212;31570;-72
2021/06/30 05:56:16;;;;;;;1.13;0.50;;;12.50;1.40;;;;;;647847;212;31501;-72
2021/06/30 05:58:57;;;;;;;1.50;0.50;;;12.50;1.40;;;;;;649969;212;31574;-71
2021/06/30 06:01:39;;;;;;;1.50;0.60;;;12.50;1.40;;;;;;649170;212;31550;-71
2021/06/30 06:04:26;;;;;;;1.57;0.40;;;12.50;1.40;;;;;;645701;212;31487;-72
2021/06/30 06:07:13;;;;;;;0.60;0.50;;;12.50;1.40;;;;;;648841;212;31513;-72
2021/06/30 06:09:58;;;;;;;0.60;0.30;;;12.60;1.40;;;;;;646383;212;31534;-72
2021/06/30 06:12:38;;;;;;;0.60;0.40;;;12.60;1.40;;;;;;645275;212;31521;-74
2021/06/30 06:15:20;;;;;;;1.30;0.40;;;12.70;1.40;;;;;;648017;212;31871;-74
2021/06/30 06:18:07;;;;;;;0.53;0.30;;;12.80;1.40;;;;;;649190;212;31764;-72
2021/06/30 06:20:48;;;;;;;0.90;0.30;;;13.10;1.40;;;;;;646808;212;31471;-72
2021/06/30 06:23:29;;;;;;;0.50;0.40;;;13.40;1.40;;;;;;645283;216;31514;-69
2021/06/30 06:26:14;;;;;;;0.43;0.20;;;13.60;1.40;;;;;;617695;222;31789;-70
2021/06/30 06:28:55;;;;;;;0.80;0.40;;;13.80;1.40;;;;;;647366;216;31486;-71
2021/06/30 06:31:36;;;;;;;0.40;0.30;;;13.90;1.40;;;;;;642742;213;32044;-71
2021/06/30 06:35:51;;;;;;;1.20;0.30;;;14.10;1.40;;;15.02;100.00;95183.28;647563;216;31859;-70
2021/06/30 06:38:33;;;;;;;0.60;0.30;;;14.30;1.40;;;15.15;100.00;95186.17;646494;212;31501;-70
2021/06/30 06:43:49;;;;;;;0.40;0.28;;;14.60;1.40;;;15.49;100.00;95192.65;618673;226;31940;-70
2021/06/30 06:46:31;;;;;;;0.60;0.30;;;14.80;1.40;;;15.50;100.00;95199.55;648032;216;33163;-69
2021/06/30 06:49:13;;;;;;;0.50;0.20;;;14.80;1.40;;;15.71;100.00;95194.65;645521;212;31586;-69
2021/06/30 06:52:35;;;;;;;0.60;0.30;;;14.90;1.40;;;15.60;100.00;95196.55;647872;216;31492;-69
2021/06/30 06:55:20;;;;;;;0.70;0.50;;;14.80;1.40;;;15.67;100.00;95194.13;647104;216;32390;-69
2021/06/30 06:58:01;;;;;;;0.70;0.20;;;14.90;1.40;;;15.75;100.00;95198.73;647356;212;32093;-69
2021/06/30 07:00:43;;;;;;;1.77;0.30;;;14.90;1.40;;;15.62;100.00;95196.59;647978;212;37954;-71
2021/06/30 07:03:25;;;;;;;0.50;0.20;;;14.90;1.40;;;15.70;100.00;95196.94;647891;216;31915;-72
2021/06/30 07:06:12;;;;;;;0.40;0.30;;;14.90;1.40;;;15.80;100.00;95197.34;645442;216;31737;-72
2021/06/30 07:09:00;;;;;;;1.20;0.30;;;15.10;1.40;;;15.90;96.16;95205.89;648690;216;31565;-71
2021/06/30 07:11:42;;;;;;;0.70;0.28;;;15.10;1.40;;;16.03;96.28;95201.00;647213;216;37728;-72
2021/06/30 07:14:23;;;;;;;0.40;0.20;;;15.30;1.40;;;16.28;96.75;95195.56;645248;216;31907;-72
2021/06/30 07:17:05;;;;;;;0.80;0.30;;;15.50;1.40;;;16.40;95.14;95199.59;620556;226;31874;-71
2021/06/30 07:19:47;;;;;;;0.88;0.20;;;15.60;1.40;;;16.53;96.44;95194.41;620015;226;42872;-72
2021/06/30 07:22:28;;;;;;;0.50;0.30;;;15.60;1.40;;;16.43;92.54;95203.30;647280;212;31592;-74
2021/06/30 07:25:12;;;;;;;1.10;0.20;;;15.50;1.40;;;16.39;91.31;95199.50;645879;216;42187;-71
2021/06/30 07:30:27;;;;;;;0.40;0.20;;;15.80;1.40;;;16.55;89.14;95204.30;647022;216;31488;-71
2021/06/30 07:35:51;;;;;;;0.62;0.20;;;16.00;1.40;;;16.86;88.19;95206.20;647888;212;31536;-72
2021/06/30 07:38:33;;;;;;;0.40;0.30;;;16.20;1.40;;;17.16;86.46;95201.91;647042;216;31526;-72
2021/06/30 07:41:15;;;;;;;0.50;0.30;;;16.30;1.40;;;17.27;87.68;95200.94;646508;212;31776;-72
2021/06/30 07:43:57;;;;;;;0.40;0.30;;;16.50;1.40;;;16.99;83.61;95195.79;647994;216;31514;-72
2021/06/30 07:46:41;;;;;;;0.80;0.20;;;16.10;1.40;;;17.14;84.24;95194.99;647421;212;31494;-71
2021/06/30 07:49:23;;;;;;;0.80;0.30;;;16.40;1.40;;;17.39;85.78;95182.61;647120;216;31521;-72
2021/06/30 07:52:05;;;;;;;0.85;0.40;;;16.70;1.40;;;17.66;81.99;95186.27;648692;212;32140;-71
2021/06/30 07:54:50;;;;;;;0.70;0.30;;;16.80;1.40;;;17.38;83.37;95187.66;645608;216;42213;-71
2021/06/30 07:57:31;;;;;;;0.40;0.20;;;16.60;1.40;;;17.50;83.01;95193.25;645570;212;31922;-72
2021/06/30 08:00:19;;;;;;;0.52;0.30;;;16.70;1.40;;;17.30;79.57;95191.15;645887;212;31612;-72
2021/06/30 08:03:07;;;;;;;0.47;0.40;;;16.30;1.40;;;17.26;81.63;95196.62;645404;216;31559;-72
2021/06/30 08:05:48;;;;;;;0.40;0.30;;;16.50;1.40;;;17.56;82.25;95190.46;621223;225;31924;-71
2021/06/30 08:08:30;;;;;;;1.40;0.40;;;16.80;1.40;;;17.61;78.92;95193.55;645138;216;32042;-72
2021/06/30 08:11:17;;;;;;;0.40;0.22;;;17.00;1.40;;;17.98;79.16;95189.67;649500;213;31474;-72
2021/06/30 08:13:56;;;;;;;0.80;0.40;;;17.10;1.40;;;17.79;79.53;95200.31;644789;216;31550;-71
2021/06/30 08:16:38;;;;;;;1.05;0.30;;;16.80;1.40;;;17.49;80.17;95201.48;619052;225;31791;-72
2021/06/30 08:19:23;;;;;;;0.80;0.40;;;16.40;1.40;;;17.26;79.53;95203.03;648165;216;31504;-76
2021/06/30 08:22:10;;;;;;;0.40;0.20;;;16.20;1.40;;;17.18;79.48;95211.65;646245;216;31468;-71
2021/06/30 08:24:46;;;;;;;0.70;0.30;;;16.00;1.40;;;17.01;80.77;95206.84;645733;216;31474;-72
2021/06/30 08:27:31;;;;;;;0.60;0.30;;;16.10;1.40;;;17.42;77.66;95207.69;647125;212;32028;-72
2021/06/30 08:30:13;;;;;;;1.30;0.30;;;16.60;1.40;;;17.93;76.69;95205.39;647574;216;32078;-71
2021/06/30 08:32:55;;;;;;;0.50;0.30;;;17.10;1.40;;;18.23;74.76;95206.77;646272;212;31605;-72
2021/06/30 08:35:51;;;;;;;0.77;0.40;;;17.30;1.40;;;18.00;76.15;95216.25;647983;216;31497;-72
2021/06/30 08:38:33;;;;;;;0.60;0.40;;;17.00;1.40;;;18.09;73.18;95217.91;646052;212;31494;-71
2021/06/30 08:41:15;;;;;;;0.50;0.30;;;17.00;1.40;;;17.66;77.50;95219.28;647601;212;31456;-71
2021/06/30 08:43:57;;;;;;;0.90;0.32;;;16.80;1.40;;;17.80;78.49;95220.18;630383;221;31648;-72
2021/06/30 08:46:44;;;;;;;0.40;0.30;;;16.90;1.40;;;17.56;76.44;95223.81;646203;216;31490;-73
2021/06/30 08:49:32;;;;;;;0.40;0.37;;;16.60;1.40;;;17.40;74.90;95225.57;646081;216;31506;-72
2021/06/30 08:52:13;;;;;;;0.50;0.30;;;16.50;1.40;;;17.19;74.67;95232.36;647388;216;31478;-71
2021/06/30 08:54:57;;;;;;;0.55;0.30;;;16.30;1.40;;;17.21;76.51;95231.05;645072;212;31481;-72
2021/06/30 08:57:37;;;;;;;1.50;0.30;;;16.50;1.40;;;17.40;76.04;95235.20;644531;212;31502;-72
2021/06/30 09:00:18;;;;;;;1.10;0.30;;;16.60;1.40;;;17.92;75.95;95234.28;646145;212;31632;-72
2021/06/30 09:03:01;;;;;;;0.50;0.30;;;17.00;1.40;;;18.16;76.32;95234.05;647693;216;31489;-72
2021/06/30 09:06:11;;;;;;;1.37;0.30;;;17.10;1.40;;;18.06;71.24;95244.22;648156;212;31498;-71
2021/06/30 09:08:55;;;;;;;0.40;0.30;;;16.80;1.40;;;17.72;71.18;95241.03;649764;216;31476;-73
2021/06/30 09:11:38;;;;;;;1.40;0.40;;;16.50;1.40;;;17.47;72.38;95240.59;647960;216;31518;-73
2021/06/30 09:14:25;;;;;;;0.90;0.30;;;16.30;1.40;;;17.14;73.45;95242.12;618485;222;31974;-72
2021/06/30 09:17:15;;;;;;;0.40;0.30;;;16.10;1.40;;;17.32;75.79;95240.27;645127;216;31472;-71
2021/06/30 09:19:55;;;;;;;0.40;0.30;;;16.30;1.40;;;17.30;76.92;95247.13;645475;212;31472;-72
2021/06/30 09:22:44;;;;;;;0.40;0.30;;;16.20;1.40;;;17.33;73.15;95252.45;645808;212;31822;-71
2021/06/30 09:25:26;;;;;;;0.50;0.30;;;16.30;1.40;;;17.48;73.04;95247.09;645827;212;31735;-73
2021/06/30 09:28:25;;;;;;;0.40;0.20;;;16.40;1.40;;;17.65;74.00;95247.43;620265;226;43355;-71
2021/06/30 09:31:10;;;;;;;1.00;0.40;;;16.50;1.40;;;17.39;73.70;95257.64;649389;216;32467;-72
2021/06/30 09:36:05;;;;;;;0.40;0.30;;;16.20;1.40;;;16.97;74.35;95270.02;644885;212;31843;-72
2021/06/30 09:38:56;;;;;;;0.60;0.30;;;15.80;1.40;;;16.77;74.86;95263.38;647932;216;31759;-71
2021/06/30 09:41:38;;;;;;;1.10;0.40;;;15.70;1.40;;;16.90;78.14;95258.92;645967;212;32091;-71
2021/06/30 09:44:20;;;;;;;0.57;0.30;;;15.80;1.40;;;16.86;78.06;95260.13;648507;216;31495;-72
2021/06/30 09:47:01;;;;;;;1.30;0.30;;;15.80;1.40;;;16.99;76.29;95258.48;646964;212;31727;-71
2021/06/30 09:49:45;;;;;;;0.50;0.30;;;16.00;1.40;;;17.24;77.91;95255.19;649632;216;31511;-73
2021/06/30 09:52:28;;;;;;;2.50;0.40;;;16.30;1.40;;;17.43;77.59;95251.03;644620;216;31782;-72
2021/06/30 09:55:28;;;;;;;0.50;0.30;;;16.50;1.40;;;18.59;73.65;95264.25;648158;212;31483;-71
2021/06/30 09:58:09;;;;;;;1.10;0.30;;;18.10;1.40;;;19.53;68.64;95260.52;647386;216;42700;-72
2021/06/30 10:00:51;;;;;;;0.60;0.30;;;18.80;1.40;;;19.16;72.00;95253.64;645606;212;31476;-71
2021/06/30 10:03:38;;;;;;;0.40;0.28;;;17.80;1.40;;;18.74;70.99;95252.03;645779;216;31499;-72
2021/06/30 10:06:30;;;;;;;0.50;0.40;;;17.40;1.40;;;18.43;73.23;95247.64;644466;216;31456;-70
2021/06/30 10:09:14;;;;;;;0.40;0.30;;;17.40;1.40;;;18.84;70.53;95248.07;649482;216;31469;-71
2021/06/30 10:11:56;;;;;;;0.50;0.30;;;17.70;1.40;;;17.93;73.23;95252.92;646583;212;31572;-71
2021/06/30 10:14:38;;;;;;;0.50;0.30;;;17.10;1.40;;;17.92;74.56;95247.61;648756;212;31718;-72
2021/06/30 10:17:20;;;;;;;0.70;0.40;;;17.10;1.40;;;18.16;75.11;95243.14;645148;216;32404;-72
2021/06/30 10:20:02;;;;;;;0.93;0.30;;;17.10;1.40;;;17.91;74.52;95240.04;617888;226;32395;-72
2021/06/30 10:22:44;;;;;;;0.50;0.40;;;17.10;1.40;;;17.81;74.81;95242.15;646110;216;31637;-71
2021/06/30 10:25:25;;;;;;;0.80;0.50;;;16.90;1.40;;;17.49;75.48;95239.10;647155;212;31902;-71
2021/06/30 10:28:07;;;;;;;0.65;0.40;;;16.50;1.40;;;17.76;75.72;95242.02;646220;216;31748;-72
2021/06/30 10:30:49;;;;;;;0.70;0.30;;;17.00;1.40;;;18.09;73.40;95241.88;645353;212;31464;-72
2021/06/30 10:35:55;;;;;;;0.50;0.40;;;17.40;1.40;;;18.00;70.98;95244.52;644036;216;31822;-71
2021/06/30 10:41:35;;;;;;;0.52;0.30;;;16.60;1.40;;;17.87;73.34;95250.37;649859;216;31472;-73
2021/06/30 10:44:23;;;;;;;0.40;0.30;;;16.70;1.40;;;17.37;74.91;95237.45;645756;216;31493;-71
2021/06/30 10:47:05;;;;;;;1.20;0.50;;;16.20;1.40;;;17.86;74.03;95238.97;646407;216;32235;-71
2021/06/30 10:49:52;;;;;;;0.40;0.30;;;16.70;1.40;;;17.83;71.76;95243.02;645167;216;42118;-73
2021/06/30 10:52:40;;;;;;;1.37;0.30;;;16.20;1.40;;;17.52;74.44;95241.66;644822;212;31608;-71
2021/06/30 10:55:51;;;;;;;0.40;0.30;;;16.00;1.40;;;17.22;77.35;95242.69;644083;212;31599;-72
2021/06/30 10:58:30;;;;;;;1.23;0.40;;;15.70;1.40;;;17.14;79.04;95236.34;644399;212;31550;-71
2021/06/30 11:01:13;;;;;;;0.55;0.32;;;15.90;1.40;;;16.76;77.84;95233.48;646094;216;31570;-71
2021/06/30 11:03:54;;;;;;;0.47;0.30;;;15.80;1.40;;;17.08;78.52;95232.63;645923;212;31580;-71
2021/06/30 11:06:36;;;;;;;0.70;0.40;;;16.20;1.40;;;17.12;76.17;95236.58;646143;212;31490;-72
2021/06/30 11:09:46;;;;;;;1.10;0.40;;;16.00;1.40;;;17.03;78.65;95232.78;646540;212;31510;-72
2021/06/30 11:12:45;;;;;;;1.02;0.40;;;15.90;1.40;;;17.49;77.95;95232.94;647249;216;31483;-72
2021/06/30 11:15:44;;;;;;;1.05;0.30;;;16.20;1.40;;;17.51;76.46;95235.86;633090;221;32682;-73
2021/06/30 11:18:45;;;;;;;1.40;0.40;;;16.20;1.40;;;17.20;77.66;95233.11;646027;216;31521;-71
2021/06/30 11:24:05;;;;;;;0.90;0.43;;;15.40;1.40;;;16.79;79.66;95242.94;646355;216;31471;-71
2021/06/30 11:26:47;;;;;;;0.60;0.40;;;15.60;1.40;;;16.78;80.11;95237.06;646326;212;31498;-73
2021/06/30 11:29:58;;;;;;;0.50;0.50;;;15.50;1.40;;;17.03;79.32;95232.86;647957;212;31474;-71
2021/06/30 11:32:45;;;;;;;2.15;0.55;;;15.60;1.40;;;17.12;80.86;95228.85;647787;216;31495;-72
2021/06/30 11:35:51;;;;;;;0.65;0.40;;;15.80;1.40;;;17.04;85.12;95239.28;646249;213;31773;-72
2021/06/30 11:38:34;;;;;;;0.68;0.40;;;15.80;1.40;;;16.55;79.24;95237.63;646893;212;31478;-73
2021/06/30 11:41:22;;;;;;;0.70;0.43;;;15.20;1.40;;;16.45;81.96;95247.36;647538;212;32058;-73
2021/06/30 11:43:56;;;;;;;1.20;0.40;;;15.20;1.40;;;16.08;82.45;95254.86;615951;217;42487;-72
2021/06/30 11:46:38;;;;;;;0.70;0.40;;;15.00;1.40;;;16.01;86.34;95257.68;645450;212;32016;-71
2021/06/30 11:49:20;;;;;;;0.82;0.50;;;14.90;1.40;;;15.68;89.37;95251.16;647177;216;31577;-72
2021/06/30 11:52:05;;;;;;;1.50;0.60;;;14.50;1.40;;;15.30;95.47;95247.36;649063;212;31560;-72
2021/06/30 11:54:57;;;;;;;0.80;0.50;;;14.20;1.40;;;15.08;100.00;95241.77;645085;212;31474;-72
2021/06/30 11:57:50;;;;;;;0.83;0.60;;;14.10;1.40;;;14.75;100.00;95233.51;620701;222;31865;-72
2021/06/30 12:00:33;;;;;;;0.70;0.60;;;13.70;1.40;;;14.26;100.00;95223.48;622311;222;35408;-74
2021/06/30 12:03:14;;;;;;;0.85;0.50;;;13.30;1.40;;;14.11;100.00;95219.03;646342;216;31541;-73
2021/06/30 12:06:02;;;;;;;1.60;0.65;;;13.10;1.40;;;13.93;100.00;95221.06;646951;213;42153;-71
2021/06/30 12:11:31;;;;;;;0.80;0.60;;;12.70;1.40;;;13.75;100.00;95218.68;650036;216;31469;-71
2021/06/30 12:14:14;;;;;;;1.20;1.00;;;12.60;1.40;;;13.63;100.00;95214.07;647665;212;32052;-72
2021/06/30 12:17:03;;;;;;;1.60;0.90;;;12.50;1.40;;;13.45;100.00;95210.03;646579;216;31501;-73
2021/06/30 12:19:45;;;;;;;2.00;1.23;;;12.40;1.40;;;13.50;100.00;95216.98;649661;216;31512;-71
2021/06/30 12:22:28;;;;;;;2.60;1.10;;;12.50;1.40;;;13.53;100.00;95214.34;645469;216;31550;-71
2021/06/30 12:25:26;;;;;;;1.50;0.62;;;12.60;1.40;;;13.38;100.00;95215.60;645313;212;32472;-72
2021/06/30 12:28:07;;;;;;;1.60;0.90;;;12.60;1.40;;;13.31;100.00;95201.41;647801;212;31576;-72
2021/06/30 12:30:51;;;;;;;1.20;0.70;;;12.60;1.40;;;13.35;100.00;95204.09;644883;216;31513;-71
2021/06/30 12:35:54;;;;;;;1.77;1.15;;;12.70;1.40;;;13.42;100.00;95201.97;647873;216;31563;-74
2021/06/30 12:38:41;;;;;;;1.20;0.93;;;12.90;1.40;;;13.43;100.00;95205.67;647419;212;31575;-71
2021/06/30 12:41:24;;;;;;;1.90;0.70;;;12.90;1.40;;;13.44;100.00;95210.97;648845;216;31533;-72
2021/06/30 12:44:05;;;;;;;1.30;0.98;;;12.90;1.40;;;13.43;100.00;95208.86;647169;212;31547;-73
2021/06/30 12:46:46;;;;;;;2.80;1.00;;;12.90;1.40;;;13.41;100.00;95211.44;646544;214;31583;-71
2021/06/30 12:49:28;;;;;;;1.40;0.90;;;12.90;1.40;;;13.48;100.00;95208.75;646093;212;31528;-72
2021/06/30 12:52:19;;;;;;;1.07;0.90;;;13.00;1.40;;;13.53;100.00;95201.43;647506;212;31511;-73
2021/06/30 12:55:11;;;;;;;1.00;0.80;;;13.10;1.40;;;13.56;100.00;95199.97;645462;212;31579;-73